createdAt,value
2022-12-01T00:01:21.155Z,1.20
2022-12-01T00:02:54.309Z,1.10
2022-12-01T00:04:27.473Z,1.10
2022-12-01T00:06:01.345Z,1.10
2022-12-01T00:07:34.594Z,1.20
2022-12-01T00:09:25.467Z,1.20
2022-12-01T00:11:04.908Z,1.20
2022-12-01T00:12:43.436Z,1.20
2022-12-01T00:14:16.886Z,1.30
2022-12-01T00:15:51.306Z,1.20
2022-12-01T00:17:23.393Z,1.30
2022-12-01T00:18:56.476Z,1.20
2022-12-01T00:20:30.169Z,1.20
2022-12-01T00:22:03.204Z,1.10
2022-12-01T00:23:35.305Z,1.20
2022-12-01T00:25:08.841Z,1.20
2022-12-01T00:26:41.926Z,1.20
2022-12-01T00:28:15.194Z,1.20
2022-12-01T00:29:48.640Z,1.10
2022-12-01T00:31:23.215Z,1.10
2022-12-01T00:32:56.320Z,1.10
2022-12-01T00:34:28.826Z,1.10
2022-12-01T00:36:02.308Z,1.10
2022-12-01T00:37:36.796Z,1.10
2022-12-01T00:39:10.753Z,1.10
2022-12-01T00:40:44.166Z,1.10
2022-12-01T00:42:17.266Z,1.20
2022-12-01T00:43:49.432Z,1.20
2022-12-01T00:45:22.489Z,1.20
2022-12-01T00:46:56.970Z,1.10
2022-12-01T00:48:30.162Z,1.10
2022-12-01T00:50:03.640Z,1.10
2022-12-01T00:51:36.685Z,1.10
2022-12-01T00:53:09.889Z,1.10
2022-12-01T00:54:43.380Z,1.10
2022-12-01T00:56:16.491Z,1.10
2022-12-01T00:57:49.606Z,1.10
2022-12-01T00:59:22.682Z,1.10
2022-12-01T01:01:00.679Z,1.10
2022-12-01T01:02:35.405Z,1.10
2022-12-01T01:04:07.687Z,1.10
2022-12-01T01:05:42.376Z,1.10
2022-12-01T01:07:15.428Z,1.10
2022-12-01T01:08:47.599Z,1.00
2022-12-01T01:10:20.657Z,1.00
2022-12-01T01:11:53.972Z,1.00
2022-12-01T01:13:27.100Z,0.90
2022-12-01T01:15:00.246Z,1.00
2022-12-01T01:16:33.987Z,1.00
2022-12-01T01:18:09.583Z,1.00
2022-12-01T01:19:42.635Z,1.00
2022-12-01T01:21:18.072Z,1.00
2022-12-01T01:22:50.395Z,1.00
2022-12-01T01:24:23.470Z,1.10
2022-12-01T01:26:02.374Z,1.00
2022-12-01T01:27:35.708Z,1.10
2022-12-01T01:29:08.803Z,1.10
2022-12-01T01:30:41.008Z,1.10
2022-12-01T01:32:14.098Z,1.00
2022-12-01T01:33:48.827Z,1.00
2022-12-01T01:35:21.932Z,1.00
2022-12-01T01:36:54.966Z,1.00
2022-12-01T01:38:28.320Z,1.00
2022-12-01T01:40:01.448Z,1.10
2022-12-01T01:41:34.671Z,1.10
2022-12-01T01:43:15.130Z,1.10
2022-12-01T01:44:51.069Z,1.10
2022-12-01T01:46:25.828Z,1.10
2022-12-01T01:48:01.079Z,1.10
2022-12-01T01:49:35.825Z,1.10
2022-12-01T01:51:08.827Z,1.10
2022-12-01T01:52:46.284Z,1.10
2022-12-01T01:54:23.249Z,1.10
2022-12-01T01:55:56.407Z,1.10
2022-12-01T01:57:32.063Z,1.10
2022-12-01T01:59:05.888Z,1.20
2022-12-01T02:00:39.355Z,1.20
2022-12-01T02:02:14.058Z,1.20
2022-12-01T02:03:48.608Z,1.20
2022-12-01T02:05:26.871Z,1.20
2022-12-01T02:06:59.127Z,1.20
2022-12-01T02:08:35.575Z,1.10
2022-12-01T02:10:13.011Z,1.00
2022-12-01T02:12:00.808Z,0.90
2022-12-01T02:13:42.885Z,1.00
2022-12-01T02:15:24.305Z,0.90
2022-12-01T02:17:02.473Z,1.00
2022-12-01T02:18:43.894Z,1.00
2022-12-01T02:20:53.497Z,0.90
2022-12-01T02:22:37.377Z,0.90
2022-12-01T02:24:45.640Z,0.90
2022-12-01T02:26:42.586Z,0.90
2022-12-01T02:28:36.749Z,1.00
2022-12-01T02:30:11.915Z,1.00
2022-12-01T02:31:54.881Z,1.00
2022-12-01T02:33:33.529Z,1.00
2022-12-01T02:35:14.485Z,1.00
2022-12-01T02:36:53.180Z,1.00
2022-12-01T02:38:31.681Z,1.00
2022-12-01T02:40:13.140Z,1.00
2022-12-01T02:41:51.775Z,1.00
2022-12-01T02:43:29.335Z,1.00
2022-12-01T02:45:06.394Z,1.10
2022-12-01T02:46:42.968Z,1.00
2022-12-01T02:48:22.398Z,1.00
2022-12-01T02:49:57.691Z,1.10
2022-12-01T02:51:33.069Z,1.00
2022-12-01T02:53:08.031Z,1.00
2022-12-01T02:54:42.224Z,1.10
2022-12-01T02:56:16.581Z,1.00
2022-12-01T02:57:48.733Z,1.00
2022-12-01T02:59:21.912Z,1.00
2022-12-01T03:01:12.871Z,1.10
2022-12-01T03:03:08.332Z,1.10
2022-12-01T03:04:56.278Z,1.10
2022-12-01T03:06:38.574Z,1.10
2022-12-01T03:08:21.988Z,1.10
2022-12-01T03:10:02.593Z,1.10
2022-12-01T03:11:42.364Z,1.10
2022-12-01T03:13:23.021Z,1.00
2022-12-01T03:15:08.032Z,1.10
2022-12-01T03:16:50.983Z,1.10
2022-12-01T03:18:33.618Z,1.10
2022-12-01T03:20:13.948Z,1.10
2022-12-01T03:21:53.710Z,1.10
2022-12-01T03:23:31.262Z,1.10
2022-12-01T03:25:04.699Z,1.10
2022-12-01T03:26:38.947Z,1.10
2022-12-01T03:28:21.156Z,1.00
2022-12-01T03:29:57.659Z,1.00
2022-12-01T03:31:36.430Z,1.00
2022-12-01T03:33:19.110Z,1.00
2022-12-01T03:34:56.580Z,1.10
2022-12-01T03:36:36.742Z,1.00
2022-12-01T03:38:14.729Z,1.10
2022-12-01T03:39:52.071Z,1.10
2022-12-01T03:41:31.077Z,1.10
2022-12-01T03:43:08.460Z,1.10
2022-12-01T03:44:47.735Z,1.10
2022-12-01T03:46:24.674Z,1.10
2022-12-01T03:47:58.277Z,1.10
2022-12-01T03:49:31.065Z,1.10
2022-12-01T03:51:11.036Z,1.10
2022-12-01T03:52:54.620Z,1.10
2022-12-01T03:54:34.995Z,1.10
2022-12-01T03:56:09.242Z,1.20
2022-12-01T03:57:47.103Z,1.10
2022-12-01T03:59:22.567Z,1.20
2022-12-01T04:00:57.670Z,1.20
2022-12-01T04:02:30.950Z,1.20
2022-12-01T04:04:09.299Z,1.20
2022-12-01T04:05:42.400Z,1.10
2022-12-01T04:07:15.442Z,1.10
2022-12-01T04:08:49.898Z,1.10
2022-12-01T04:10:23.255Z,1.10
2022-12-01T04:12:13.694Z,1.20
2022-12-01T04:13:45.789Z,1.10
2022-12-01T04:15:19.033Z,1.10
2022-12-01T04:16:52.113Z,1.10
2022-12-01T04:18:25.172Z,1.10
2022-12-01T04:19:58.361Z,1.00
2022-12-01T04:21:30.447Z,1.10
2022-12-01T04:23:03.525Z,1.10
2022-12-01T04:24:36.946Z,1.10
2022-12-01T04:26:15.451Z,1.10
2022-12-01T04:27:48.883Z,1.10
2022-12-01T04:29:22.047Z,1.10
2022-12-01T04:30:55.331Z,1.10
2022-12-01T04:32:28.642Z,1.10
2022-12-01T04:34:00.846Z,1.10
2022-12-01T04:35:33.916Z,1.20
2022-12-01T04:37:09.966Z,1.10
2022-12-01T04:38:42.017Z,1.10
2022-12-01T04:40:16.634Z,1.20
2022-12-01T04:41:49.808Z,1.10
2022-12-01T04:43:21.893Z,1.20
2022-12-01T04:44:55.016Z,1.30
2022-12-01T04:46:28.234Z,1.20
2022-12-01T04:48:01.514Z,1.20
2022-12-01T04:49:37.271Z,1.20
2022-12-01T04:51:09.688Z,1.20
2022-12-01T04:52:42.748Z,1.20
2022-12-01T04:54:16.548Z,1.20
2022-12-01T04:55:50.990Z,1.20
2022-12-01T04:57:24.019Z,1.20
2022-12-01T04:58:56.138Z,1.20
2022-12-01T05:00:29.289Z,1.20
2022-12-01T05:02:04.186Z,1.20
2022-12-01T05:03:37.427Z,1.30
2022-12-01T05:05:10.937Z,1.20
2022-12-01T05:06:44.777Z,1.10
2022-12-01T05:08:16.880Z,1.10
2022-12-01T05:09:50.183Z,1.10
2022-12-01T05:11:26.480Z,1.20
2022-12-01T05:13:00.347Z,1.10
2022-12-01T05:14:33.410Z,1.20
2022-12-01T05:16:06.771Z,1.10
2022-12-01T05:17:39.902Z,1.10
2022-12-01T05:19:30.250Z,1.20
2022-12-01T05:21:04.040Z,1.10
2022-12-01T05:23:04.293Z,1.10
2022-12-01T05:24:30.148Z,1.10
2022-12-01T05:26:05.495Z,1.20
2022-12-01T05:27:39.885Z,1.20
2022-12-01T05:29:14.016Z,1.20
2022-12-01T05:30:47.279Z,1.20
2022-12-01T05:32:20.306Z,1.20
2022-12-01T05:33:52.399Z,1.10
2022-12-01T05:35:25.463Z,1.10
2022-12-01T05:36:58.495Z,1.00
2022-12-01T05:38:31.553Z,1.10
2022-12-01T05:40:04.022Z,1.10
2022-12-01T05:41:37.159Z,1.00
2022-12-01T05:43:11.563Z,1.00
2022-12-01T05:44:44.629Z,1.10
2022-12-01T05:46:18.013Z,1.20
2022-12-01T05:47:51.158Z,1.20
2022-12-01T05:49:24.442Z,1.30
2022-12-01T05:50:57.560Z,1.30
2022-12-01T05:52:30.604Z,1.20
2022-12-01T05:54:03.878Z,1.20
2022-12-01T05:55:36.954Z,1.30
2022-12-01T05:57:10.022Z,1.30
2022-12-01T05:58:44.472Z,1.30
2022-12-01T06:00:18.610Z,1.30
2022-12-01T06:01:51.740Z,1.30
2022-12-01T06:03:24.849Z,1.40
2022-12-01T06:04:57.991Z,1.30
2022-12-01T06:06:31.041Z,1.30
2022-12-01T06:08:04.119Z,1.30
2022-12-01T06:09:37.170Z,1.30
2022-12-01T06:11:10.574Z,1.20
2022-12-01T06:12:42.633Z,1.20
2022-12-01T06:14:17.169Z,1.30
2022-12-01T06:15:58.556Z,1.30
2022-12-01T06:17:34.638Z,1.20
2022-12-01T06:19:11.841Z,1.20
2022-12-01T06:20:44.905Z,1.20
2022-12-01T06:22:16.953Z,1.20
2022-12-01T06:23:50.116Z,1.10
2022-12-01T06:25:23.158Z,1.10
2022-12-01T06:26:56.248Z,1.20
2022-12-01T06:28:29.330Z,1.20
2022-12-01T06:30:04.532Z,1.20
2022-12-01T06:31:37.669Z,1.20
2022-12-01T06:33:11.027Z,1.20
2022-12-01T06:34:44.681Z,1.20
2022-12-01T06:36:17.736Z,1.10
2022-12-01T06:37:50.831Z,1.10
2022-12-01T06:39:23.885Z,1.00
2022-12-01T06:40:56.968Z,1.20
2022-12-01T06:42:31.624Z,1.10
2022-12-01T06:44:04.785Z,1.10
2022-12-01T06:45:39.264Z,1.10
2022-12-01T06:47:12.365Z,1.10
2022-12-01T06:48:45.425Z,1.10
2022-12-01T06:50:18.653Z,1.10
2022-12-01T06:51:51.731Z,1.10
2022-12-01T06:53:24.781Z,1.10
2022-12-01T06:54:57.832Z,1.10
2022-12-01T06:56:31.057Z,1.10
2022-12-01T06:58:04.916Z,1.20
2022-12-01T06:59:38.290Z,1.20
2022-12-01T07:01:13.560Z,1.10
2022-12-01T07:02:46.703Z,1.20
2022-12-01T07:04:19.873Z,1.20
2022-12-01T07:05:58.500Z,1.20
2022-12-01T07:07:31.766Z,1.20
2022-12-01T07:09:04.964Z,1.20
2022-12-01T07:10:38.028Z,1.20
2022-12-01T07:12:11.073Z,1.20
2022-12-01T07:13:46.341Z,1.20
2022-12-01T07:15:19.647Z,1.20
2022-12-01T07:16:54.449Z,1.10
2022-12-01T07:18:27.717Z,1.30
2022-12-01T07:20:00.831Z,1.30
2022-12-01T07:21:33.881Z,1.20
2022-12-01T07:23:06.944Z,1.20
2022-12-01T07:24:40.023Z,1.20
2022-12-01T07:26:15.415Z,1.30
2022-12-01T07:27:48.540Z,1.30
2022-12-01T07:29:21.616Z,1.20
2022-12-01T07:30:53.857Z,1.20
2022-12-01T07:32:28.402Z,1.30
2022-12-01T07:34:01.484Z,1.30
2022-12-01T07:35:34.553Z,1.30
2022-12-01T07:37:07.647Z,1.20
2022-12-01T07:38:41.103Z,1.30
2022-12-01T07:40:14.808Z,1.30
2022-12-01T07:41:47.867Z,1.30
2022-12-01T07:43:20.936Z,1.40
2022-12-01T07:44:54.009Z,1.40
2022-12-01T07:46:29.186Z,1.50
2022-12-01T07:48:03.700Z,1.50
2022-12-01T07:49:36.723Z,1.50
2022-12-01T07:51:12.343Z,1.50
2022-12-01T07:52:45.359Z,1.50
2022-12-01T07:54:20.969Z,1.50
2022-12-01T07:55:54.034Z,1.50
2022-12-01T07:57:27.162Z,1.40
2022-12-01T07:59:00.283Z,1.50
2022-12-01T08:00:33.331Z,1.40
2022-12-01T08:02:06.730Z,1.50
2022-12-01T08:03:42.392Z,1.50
2022-12-01T08:05:15.679Z,1.40
2022-12-01T08:06:48.778Z,1.50
2022-12-01T08:08:21.947Z,1.50
2022-12-01T08:09:55.031Z,1.40
2022-12-01T08:11:29.816Z,1.40
2022-12-01T08:13:02.968Z,1.50
2022-12-01T08:14:36.031Z,1.50
2022-12-01T08:16:11.108Z,1.50
2022-12-01T08:17:44.206Z,1.50
2022-12-01T08:19:18.604Z,1.50
2022-12-01T08:20:51.939Z,1.40
2022-12-01T08:22:25.063Z,1.50
2022-12-01T08:23:59.098Z,1.50
2022-12-01T08:25:33.336Z,1.60
2022-12-01T08:27:06.429Z,1.60
2022-12-01T08:28:40.168Z,1.60
2022-12-01T08:30:14.547Z,1.50
2022-12-01T08:31:47.641Z,1.40
2022-12-01T08:33:20.708Z,1.50
2022-12-01T08:34:55.141Z,1.50
2022-12-01T08:36:28.277Z,1.50
2022-12-01T08:38:01.303Z,1.60
2022-12-01T08:39:34.367Z,1.50
2022-12-01T08:41:09.749Z,1.50
2022-12-01T08:42:42.832Z,1.50
2022-12-01T08:44:15.889Z,1.50
2022-12-01T08:45:49.056Z,1.60
2022-12-01T08:47:22.114Z,1.70
2022-12-01T08:48:57.874Z,1.60
2022-12-01T08:50:32.545Z,1.60
2022-12-01T08:52:05.787Z,1.60
2022-12-01T08:53:45.271Z,1.60
2022-12-01T08:55:18.963Z,1.50
2022-12-01T08:56:52.254Z,1.50
2022-12-01T08:58:25.436Z,1.50
2022-12-01T08:59:58.607Z,1.60
2022-12-01T09:01:32.857Z,1.60
2022-12-01T09:03:06.208Z,1.70
2022-12-01T09:04:39.301Z,1.60
2022-12-01T09:06:15.976Z,1.50
2022-12-01T09:08:09.555Z,1.50
2022-12-01T09:09:43.017Z,1.40
2022-12-01T09:11:18.508Z,1.40
2022-12-01T09:12:51.539Z,1.40
2022-12-01T09:14:25.027Z,1.50
2022-12-01T09:16:00.042Z,1.50
2022-12-01T09:17:33.241Z,1.50
2022-12-01T09:19:06.423Z,1.50
2022-12-01T09:20:39.467Z,1.60
2022-12-01T09:22:13.943Z,1.70
2022-12-01T09:23:47.192Z,1.70
2022-12-01T09:25:20.279Z,1.80
2022-12-01T09:26:56.906Z,1.90
2022-12-01T09:28:30.025Z,1.80
2022-12-01T09:30:03.082Z,1.80
2022-12-01T09:31:36.628Z,1.90
2022-12-01T09:33:09.766Z,1.80
2022-12-01T09:34:42.842Z,2.00
2022-12-01T09:36:15.929Z,2.00
2022-12-01T09:37:50.447Z,2.00
2022-12-01T09:39:23.675Z,2.00
2022-12-01T09:40:58.697Z,2.00
2022-12-01T09:42:35.405Z,1.90
2022-12-01T09:44:20.710Z,1.90
2022-12-01T09:46:03.976Z,2.00
2022-12-01T09:47:37.983Z,2.00
2022-12-01T09:49:17.885Z,2.10
2022-12-01T09:50:51.004Z,1.80
2022-12-01T09:52:26.352Z,1.80
2022-12-01T09:54:02.459Z,1.90
2022-12-01T09:55:36.862Z,1.90
2022-12-01T09:57:18.470Z,1.90
2022-12-01T09:58:55.939Z,2.00
2022-12-01T10:00:32.642Z,2.10
2022-12-01T10:02:32.379Z,2.10
2022-12-01T10:04:12.362Z,2.00
2022-12-01T10:06:18.435Z,2.10
2022-12-01T10:07:47.092Z,1.90
2022-12-01T10:09:27.004Z,2.00
2022-12-01T10:11:06.886Z,2.00
2022-12-01T10:12:44.120Z,2.00
2022-12-01T10:14:21.088Z,1.90
2022-12-01T10:16:02.023Z,1.90
2022-12-01T10:17:43.006Z,1.90
2022-12-01T10:19:23.236Z,1.90
2022-12-01T10:21:04.430Z,1.90
2022-12-01T10:23:09.509Z,1.90
2022-12-01T10:24:54.187Z,1.80
2022-12-01T10:26:35.342Z,1.80
2022-12-01T10:28:30.588Z,1.70
2022-12-01T10:30:07.460Z,1.70
2022-12-01T10:31:52.582Z,1.70
2022-12-01T10:33:27.999Z,1.70
2022-12-01T10:35:01.186Z,1.70
2022-12-01T10:36:35.358Z,1.60
2022-12-01T10:38:17.835Z,1.70
2022-12-01T10:39:54.901Z,1.70
2022-12-01T10:41:31.088Z,1.70
2022-12-01T10:43:04.376Z,1.90
2022-12-01T10:44:37.501Z,1.90
2022-12-01T10:46:28.387Z,1.90
2022-12-01T10:48:17.114Z,2.00
2022-12-01T10:49:51.004Z,1.90
2022-12-01T10:51:25.479Z,1.90
2022-12-01T10:52:58.734Z,1.90
2022-12-01T10:54:36.205Z,1.90
2022-12-01T10:56:15.009Z,1.80
2022-12-01T10:57:48.221Z,1.90
2022-12-01T10:59:27.358Z,1.90
2022-12-01T11:01:03.655Z,2.00
2022-12-01T11:02:37.221Z,2.10
2022-12-01T11:04:32.524Z,2.20
2022-12-01T11:06:08.108Z,2.20
2022-12-01T11:07:45.253Z,2.30
2022-12-01T11:09:26.028Z,2.30
2022-12-01T11:10:59.805Z,2.10
2022-12-01T11:12:34.722Z,2.10
2022-12-01T11:14:26.371Z,1.90
2022-12-01T11:16:00.959Z,2.00
2022-12-01T11:17:38.017Z,2.10
2022-12-01T11:19:26.980Z,2.20
2022-12-01T11:21:10.480Z,2.20
2022-12-01T11:22:43.596Z,2.20
2022-12-01T11:24:42.166Z,2.00
2022-12-01T11:26:17.762Z,2.20
2022-12-01T11:27:57.544Z,2.30
2022-12-01T11:29:36.052Z,2.10
2022-12-01T11:31:11.995Z,2.20
2022-12-01T11:32:53.831Z,2.30
2022-12-01T11:34:29.646Z,2.40
2022-12-01T11:36:02.766Z,2.40
2022-12-01T11:37:39.684Z,2.50
2022-12-01T11:39:24.636Z,2.60
2022-12-01T11:40:59.090Z,2.40
2022-12-01T11:42:34.387Z,2.10
2022-12-01T11:46:12.621Z,2.20
2022-12-01T11:48:04.522Z,2.40
2022-12-01T11:49:47.076Z,2.30
2022-12-01T11:51:29.925Z,2.20
2022-12-01T11:53:03.410Z,2.30
2022-12-01T11:54:36.559Z,2.40
2022-12-01T11:56:19.047Z,2.40
2022-12-01T11:57:54.599Z,2.40
2022-12-01T11:59:30.518Z,2.60
2022-12-01T12:01:04.101Z,2.50
2022-12-01T12:02:44.258Z,2.40
2022-12-01T12:04:40.198Z,2.50
2022-12-01T12:08:27.756Z,2.20
2022-12-01T12:10:13.734Z,2.40
2022-12-01T12:11:56.340Z,2.40
2022-12-01T12:13:54.618Z,2.20
2022-12-01T12:15:39.051Z,2.10
2022-12-01T12:17:44.737Z,2.20
2022-12-01T12:19:52.481Z,2.20
2022-12-01T12:21:34.930Z,2.20
2022-12-01T12:23:21.479Z,2.20
2022-12-01T12:25:04.240Z,2.20
2022-12-01T12:26:44.874Z,2.20
2022-12-01T12:28:32.099Z,2.10
2022-12-01T12:30:15.008Z,2.20
2022-12-01T12:32:05.035Z,2.10
2022-12-01T12:34:08.396Z,2.00
2022-12-01T12:35:49.840Z,2.20
2022-12-01T12:37:32.652Z,2.30
2022-12-01T12:39:24.335Z,2.30
2022-12-01T12:41:07.757Z,2.30
2022-12-01T12:42:50.510Z,2.40
2022-12-01T12:44:44.324Z,2.40
2022-12-01T12:46:23.222Z,2.60
2022-12-01T12:48:17.624Z,2.60
2022-12-01T12:49:59.653Z,2.40
2022-12-01T12:51:36.551Z,2.20
2022-12-01T12:53:16.803Z,2.30
2022-12-01T12:54:53.630Z,2.20
2022-12-01T12:56:28.727Z,2.30
2022-12-01T12:58:11.244Z,2.40
2022-12-01T12:59:51.183Z,2.40
2022-12-01T13:01:27.523Z,2.30
2022-12-01T13:03:10.579Z,2.40
2022-12-01T13:04:49.719Z,2.40
2022-12-01T13:06:27.162Z,2.30
2022-12-01T13:08:05.364Z,2.30
2022-12-01T13:09:42.770Z,2.30
2022-12-01T13:11:21.114Z,2.30
2022-12-01T13:13:00.448Z,2.30
2022-12-01T13:14:37.656Z,2.30
2022-12-01T13:16:16.008Z,2.20
2022-12-01T13:17:52.974Z,2.20
2022-12-01T13:19:31.633Z,2.10
2022-12-01T13:21:06.574Z,2.00
2022-12-01T13:22:40.609Z,2.00
2022-12-01T13:24:22.837Z,1.90
2022-12-01T13:26:00.179Z,2.00
2022-12-01T13:27:35.827Z,2.00
2022-12-01T13:29:14.992Z,2.00
2022-12-01T13:31:03.293Z,2.00
2022-12-01T13:32:40.301Z,1.90
2022-12-01T13:34:23.289Z,1.90
2022-12-01T13:36:30.025Z,1.90
2022-12-01T13:37:51.648Z,1.90
2022-12-01T13:39:27.759Z,2.00
2022-12-01T13:41:24.187Z,1.90
2022-12-01T13:43:06.940Z,1.90
2022-12-01T13:44:44.150Z,1.80
2022-12-01T13:46:23.282Z,1.70
2022-12-01T13:47:57.195Z,1.70
2022-12-01T13:49:39.733Z,1.80
2022-12-01T13:51:14.252Z,1.70
2022-12-01T13:52:51.438Z,1.70
2022-12-01T13:54:31.621Z,1.70
2022-12-01T13:56:27.584Z,1.70
2022-12-01T13:58:25.651Z,1.70
2022-12-01T14:00:23.965Z,1.70
2022-12-01T14:02:15.096Z,1.70
2022-12-01T14:03:53.991Z,1.80
2022-12-01T14:05:51.775Z,1.70
2022-12-01T14:07:37.516Z,1.70
2022-12-01T14:09:18.848Z,1.70
2022-12-01T14:10:58.263Z,1.80
2022-12-01T14:12:37.597Z,1.80
2022-12-01T14:14:14.350Z,1.70
2022-12-01T14:15:56.047Z,1.80
2022-12-01T14:17:32.482Z,1.70
2022-12-01T14:19:05.601Z,1.80
2022-12-01T14:20:46.935Z,1.70
2022-12-01T14:22:34.109Z,1.70
2022-12-01T14:24:19.273Z,1.70
2022-12-01T14:26:15.310Z,1.70
2022-12-01T14:27:51.246Z,1.70
2022-12-01T14:29:33.108Z,1.70
2022-12-01T14:31:07.000Z,1.70
2022-12-01T14:32:40.147Z,1.70
2022-12-01T14:34:18.952Z,1.70
2022-12-01T14:35:53.271Z,1.70
2022-12-01T14:37:34.291Z,1.70
2022-12-01T14:39:16.078Z,1.60
2022-12-01T14:40:49.268Z,1.70
2022-12-01T14:42:46.820Z,1.70
2022-12-01T14:44:28.823Z,1.70
2022-12-01T14:46:07.848Z,1.60
2022-12-01T14:47:44.699Z,1.60
2022-12-01T14:49:24.969Z,1.50
2022-12-01T14:51:14.580Z,1.50
2022-12-01T14:52:51.822Z,1.50
2022-12-01T14:54:30.159Z,1.50
2022-12-01T14:56:11.778Z,1.50
2022-12-01T14:57:49.698Z,1.40
2022-12-01T14:59:26.258Z,1.40
2022-12-01T15:01:06.595Z,1.50
2022-12-01T15:02:41.690Z,1.50
2022-12-01T15:04:15.440Z,1.50
2022-12-01T15:05:48.965Z,1.50
2022-12-01T15:07:22.756Z,1.50
2022-12-01T15:11:10.708Z,1.40
2022-12-01T15:12:44.245Z,1.40
2022-12-01T15:14:29.636Z,1.30
2022-12-01T15:16:05.124Z,1.30
2022-12-01T15:17:38.254Z,1.30
2022-12-01T15:19:24.102Z,1.30
2022-12-01T15:21:00.707Z,1.20
2022-12-01T15:22:35.346Z,1.30
2022-12-01T15:24:23.743Z,1.30
2022-12-01T15:25:57.836Z,1.30
2022-12-01T15:27:33.739Z,1.30
2022-12-01T15:29:15.377Z,1.30
2022-12-01T15:30:50.759Z,1.30
2022-12-01T15:32:25.752Z,1.30
2022-12-01T15:33:59.298Z,1.30
2022-12-01T15:35:32.608Z,1.20
2022-12-01T15:37:08.629Z,1.20
2022-12-01T15:38:44.884Z,1.20
2022-12-01T15:42:23.320Z,1.20
2022-12-01T15:43:59.189Z,1.10
2022-12-01T15:45:44.362Z,1.10
2022-12-01T15:47:35.905Z,1.00
2022-12-01T15:49:10.931Z,1.00
2022-12-01T15:50:47.688Z,1.00
2022-12-01T15:52:21.288Z,1.10
2022-12-01T15:53:56.304Z,1.10
2022-12-01T15:55:31.906Z,1.10
2022-12-01T15:57:06.095Z,1.10
2022-12-01T15:58:43.734Z,1.00
2022-12-01T16:00:21.945Z,1.00
2022-12-01T16:01:56.789Z,1.10
2022-12-01T16:03:30.270Z,1.10
2022-12-01T16:05:07.463Z,1.10
2022-12-01T16:06:41.379Z,1.10
2022-12-01T16:08:16.716Z,1.00
2022-12-01T16:09:58.041Z,1.10
2022-12-01T16:11:31.380Z,1.00
2022-12-01T16:13:47.236Z,1.10
2022-12-01T16:15:22.772Z,1.10
2022-12-01T16:16:55.965Z,1.10
2022-12-01T16:18:32.499Z,1.10
2022-12-01T16:20:26.954Z,1.10
2022-12-01T16:22:05.798Z,1.10
2022-12-01T16:23:38.855Z,1.20
2022-12-01T16:25:18.270Z,1.10
2022-12-01T16:26:54.117Z,1.00
2022-12-01T16:28:35.408Z,1.00
2022-12-01T16:30:23.156Z,0.90
2022-12-01T16:32:19.416Z,0.90
2022-12-01T16:34:06.527Z,0.90
2022-12-01T16:35:47.306Z,0.90
2022-12-01T16:37:21.569Z,1.00
2022-12-01T16:38:54.666Z,1.00
2022-12-01T16:40:27.965Z,0.90
2022-12-01T16:42:01.962Z,1.00
2022-12-01T16:43:35.129Z,1.00
2022-12-01T16:45:13.657Z,1.10
2022-12-01T16:46:48.084Z,1.00
2022-12-01T16:48:21.573Z,1.00
2022-12-01T16:49:54.649Z,1.00
2022-12-01T16:51:35.440Z,1.00
2022-12-01T16:53:20.776Z,0.90
2022-12-01T16:54:53.852Z,1.00
2022-12-01T16:56:27.072Z,1.00
2022-12-01T16:58:00.148Z,1.10
2022-12-01T16:59:33.406Z,1.10
2022-12-01T17:01:08.241Z,1.00
2022-12-01T17:02:42.761Z,1.00
2022-12-01T17:04:15.863Z,1.00
2022-12-01T17:05:49.108Z,1.00
2022-12-01T17:07:22.329Z,1.00
2022-12-01T17:08:55.403Z,1.00
2022-12-01T17:10:28.476Z,1.00
2022-12-01T17:12:01.504Z,1.00
2022-12-01T17:13:34.923Z,1.00
2022-12-01T17:15:08.725Z,1.00
2022-12-01T17:16:41.819Z,1.00
2022-12-01T17:18:17.663Z,1.00
2022-12-01T17:19:53.347Z,1.00
2022-12-01T17:21:26.399Z,1.00
2022-12-01T17:22:59.783Z,1.00
2022-12-01T17:24:32.838Z,1.10
2022-12-01T17:26:11.309Z,1.10
2022-12-01T17:27:45.720Z,1.10
2022-12-01T17:29:18.818Z,1.20
2022-12-01T17:30:51.912Z,1.20
2022-12-01T17:32:25.040Z,1.20
2022-12-01T17:33:59.464Z,1.10
2022-12-01T17:35:32.601Z,1.10
2022-12-01T17:37:05.720Z,1.20
2022-12-01T17:38:40.277Z,1.20
2022-12-01T17:40:14.854Z,1.20
2022-12-01T17:41:47.950Z,1.30
2022-12-01T17:43:23.145Z,1.30
2022-12-01T17:44:56.213Z,1.30
2022-12-01T17:46:30.150Z,1.30
2022-12-01T17:48:03.365Z,1.30
2022-12-01T17:49:38.417Z,1.20
2022-12-01T17:51:13.077Z,1.30
2022-12-01T17:52:46.153Z,1.30
2022-12-01T17:54:19.190Z,1.30
2022-12-01T17:55:52.254Z,1.30
2022-12-01T17:57:25.315Z,1.30
2022-12-01T17:58:58.421Z,1.30
2022-12-01T18:00:31.767Z,1.20
2022-12-01T18:02:05.325Z,1.30
2022-12-01T18:03:38.438Z,1.30
2022-12-01T18:05:12.886Z,1.30
2022-12-01T18:06:49.354Z,1.30
2022-12-01T18:08:28.246Z,1.30
2022-12-01T18:10:02.400Z,1.20
2022-12-01T18:11:35.469Z,1.20
2022-12-01T18:13:08.553Z,1.20
2022-12-01T18:14:41.599Z,1.30
2022-12-01T18:16:17.552Z,1.30
2022-12-01T18:17:50.629Z,1.30
2022-12-01T18:19:24.503Z,1.40
2022-12-01T18:20:58.907Z,1.40
2022-12-01T18:22:31.960Z,1.40
2022-12-01T18:24:08.786Z,1.40
2022-12-01T18:25:42.145Z,1.40
2022-12-01T18:27:15.188Z,1.40
2022-12-01T18:28:48.518Z,1.40
2022-12-01T18:30:21.645Z,1.40
2022-12-01T18:31:55.576Z,1.40
2022-12-01T18:33:28.663Z,1.40
2022-12-01T18:35:01.727Z,1.40
2022-12-01T18:36:37.756Z,1.50
2022-12-01T18:38:10.898Z,1.40
2022-12-01T18:39:43.940Z,1.40
2022-12-01T18:41:17.815Z,1.40
2022-12-01T18:42:50.989Z,1.40
2022-12-01T18:44:24.081Z,1.50
2022-12-01T18:45:57.588Z,1.40
2022-12-01T18:47:30.769Z,1.50
2022-12-01T18:49:05.016Z,1.50
2022-12-01T18:50:38.101Z,1.50
2022-12-01T18:52:12.540Z,1.40
2022-12-01T18:53:46.094Z,1.40
2022-12-01T18:55:19.232Z,1.40
2022-12-01T18:56:53.437Z,1.40
2022-12-01T18:58:26.486Z,1.40
2022-12-01T18:59:59.608Z,1.50
2022-12-01T19:01:36.149Z,1.40
2022-12-01T19:03:09.353Z,1.50
2022-12-01T19:04:43.242Z,1.50
2022-12-01T19:06:17.050Z,1.50
2022-12-01T19:07:54.748Z,1.40
2022-12-01T19:09:27.892Z,1.50
2022-12-01T19:11:00.845Z,1.40
2022-12-01T19:12:40.684Z,1.50
2022-12-01T19:14:16.760Z,1.50
2022-12-01T19:15:50.797Z,1.50
2022-12-01T19:17:24.126Z,1.50
2022-12-01T19:18:57.349Z,1.50
2022-12-01T19:20:30.619Z,1.50
2022-12-01T19:22:03.807Z,1.50
2022-12-01T19:23:38.841Z,1.50
2022-12-01T19:25:13.405Z,1.40
2022-12-01T19:26:46.542Z,1.50
2022-12-01T19:28:19.636Z,1.50
2022-12-01T19:29:53.892Z,1.50
2022-12-01T19:31:27.640Z,1.50
2022-12-01T19:33:00.787Z,1.50
2022-12-01T19:34:34.444Z,1.50
2022-12-01T19:36:11.350Z,1.50
2022-12-01T19:37:44.441Z,1.50
2022-12-01T19:39:18.986Z,1.50
2022-12-01T19:40:52.041Z,1.40
2022-12-01T19:42:25.115Z,1.50
2022-12-01T19:43:59.596Z,1.40
2022-12-01T19:45:33.690Z,1.40
2022-12-01T19:47:07.862Z,1.50
2022-12-01T19:48:41.002Z,1.50
2022-12-01T19:50:14.175Z,1.40
2022-12-01T19:51:47.307Z,1.40
2022-12-01T19:53:20.562Z,1.40
2022-12-01T19:54:55.086Z,1.50
2022-12-01T19:56:29.503Z,1.40
2022-12-01T19:58:02.583Z,1.40
2022-12-01T19:59:35.671Z,1.40
2022-12-01T20:01:11.764Z,1.50
2022-12-01T20:02:44.953Z,1.40
2022-12-01T20:04:18.054Z,1.50
2022-12-01T20:05:51.126Z,1.50
2022-12-01T20:07:24.402Z,1.40
2022-12-01T20:08:59.633Z,1.50
2022-12-01T20:10:34.043Z,1.50
2022-12-01T20:12:07.428Z,1.50
2022-12-01T20:13:42.592Z,1.40
2022-12-01T20:15:15.874Z,1.40
2022-12-01T20:16:49.193Z,1.40
2022-12-01T20:18:22.365Z,1.40
2022-12-01T20:19:55.423Z,1.40
2022-12-01T20:21:30.538Z,1.40
2022-12-01T20:23:03.618Z,1.40
2022-12-01T20:24:39.521Z,1.50
2022-12-01T20:26:14.800Z,1.40
2022-12-01T20:27:47.869Z,1.40
2022-12-01T20:29:25.461Z,1.50
2022-12-01T20:30:59.139Z,1.40
2022-12-01T20:32:34.403Z,1.50
2022-12-01T20:34:10.376Z,1.40
2022-12-01T20:35:43.446Z,1.40
2022-12-01T20:37:16.519Z,1.40
2022-12-01T20:38:49.918Z,1.40
2022-12-01T20:40:22.965Z,1.40
2022-12-01T20:41:57.488Z,1.50
2022-12-01T20:43:30.556Z,1.40
2022-12-01T20:45:03.663Z,1.40
2022-12-01T20:46:38.176Z,1.40
2022-12-01T20:48:11.290Z,1.40
2022-12-01T20:49:44.458Z,1.40
2022-12-01T20:51:17.569Z,1.40
2022-12-01T20:52:50.867Z,1.40
2022-12-01T20:54:28.673Z,1.40
2022-12-01T20:56:04.317Z,1.40
2022-12-01T20:57:38.768Z,1.40
2022-12-01T20:59:11.914Z,1.40
2022-12-01T21:00:45.247Z,1.50
2022-12-01T21:02:18.493Z,1.40
2022-12-01T21:03:52.293Z,1.50
2022-12-01T21:05:25.595Z,1.50
2022-12-01T21:06:59.472Z,1.50
2022-12-01T21:08:33.334Z,1.50
2022-12-01T21:10:07.357Z,1.50
2022-12-01T21:12:03.420Z,1.60
2022-12-01T21:13:39.480Z,1.50
2022-12-01T21:15:21.324Z,1.60
2022-12-01T21:16:57.846Z,1.50
2022-12-01T21:18:39.658Z,1.50
2022-12-01T21:20:21.642Z,1.60
2022-12-01T21:21:54.783Z,1.50
2022-12-01T21:23:28.977Z,1.60
2022-12-01T21:25:07.725Z,1.60
2022-12-01T21:26:43.120Z,1.60
2022-12-01T21:28:19.823Z,1.60
2022-12-01T21:29:54.332Z,1.60
2022-12-01T21:31:28.211Z,1.60
2022-12-01T21:33:18.156Z,1.60
2022-12-01T21:34:51.508Z,1.70
2022-12-01T21:36:28.206Z,1.60